Time;durP1;ratioP1;P1;durP2;ratioP2;P2;SDS_P1;SDS_P2;PMS_P1;PMS_P2;Temp;Humidity;BMP_temperature;BMP_pressure;BME280_temperature;BME280_humidity;BME280_pressure;Samples;Min_cycle;Max_cycle;Signal;HPM_P1;HPM_P2
2022/12/19 00:00:48;;;;;;;29.40;18.53;;;0.60;99.90;;;;;;4964776;28;20083;-73
2022/12/19 00:03:14;;;;;;;31.73;20.53;;;0.60;99.90;;;;;;4975057;28;20053;-75
2022/12/19 00:05:40;;;;;;;22.50;15.03;;;0.70;99.90;;;;;;4983442;28;20065;-74
2022/12/19 00:08:18;;;;;;;25.90;15.87;;;0.70;99.90;;;;;;4984083;28;20145;-75
2022/12/19 00:10:43;;;;;;;30.97;17.53;;;0.70;99.90;;;;;;4985863;28;20050;-73
2022/12/19 00:13:09;;;;;;;25.47;17.30;;;0.70;99.90;;;;;;4986886;28;20108;-76
2022/12/19 00:15:35;;;;;;;31.77;17.63;;;0.70;99.90;;;;;;4978294;28;20142;-75
2022/12/19 00:18:01;;;;;;;24.37;14.97;;;0.70;99.90;;;;;;4967587;28;20473;-73
2022/12/19 00:20:27;;;;;;;33.50;18.50;;;0.80;99.90;;;;;;4968056;28;20043;-72
2022/12/19 00:22:52;;;;;;;22.60;16.23;;;0.80;99.90;;;;;;4966944;28;20050;-72
2022/12/19 00:25:18;;;;;;;28.93;18.07;;;0.80;99.90;;;;;;4968129;28;20039;-72
2022/12/19 00:27:43;;;;;;;41.50;20.50;;;0.80;99.90;;;;;;4971627;28;20078;-73
2022/12/19 00:30:10;;;;;;;34.07;17.17;;;0.80;99.90;;;;;;4967487;28;20542;-72
2022/12/19 00:32:36;;;;;;;39.10;20.07;;;0.80;99.90;;;;;;4967710;28;20544;-74
2022/12/19 00:35:02;;;;;;;29.27;19.00;;;0.80;99.90;;;;;;4966063;28;20058;-74
2022/12/19 00:37:28;;;;;;;31.47;21.07;;;0.80;99.90;;;;;;4985466;28;20046;-73
2022/12/19 00:39:53;;;;;;;29.57;19.10;;;0.80;99.90;;;;;;4970073;28;20561;-75
2022/12/19 00:42:19;;;;;;;29.90;19.20;;;0.90;99.90;;;;;;4967527;28;20114;-76
2022/12/19 00:44:46;;;;;;;38.60;18.70;;;0.80;99.90;;;;;;4969658;28;20410;-73
2022/12/19 00:47:11;;;;;;;31.03;20.07;;;0.90;99.90;;;;;;4986511;28;20114;-73
2022/12/19 00:49:37;;;;;;;27.07;19.80;;;0.90;99.90;;;;;;4985827;28;20573;-71
2022/12/19 00:52:03;;;;;;;32.33;17.23;;;0.90;99.90;;;;;;4978167;28;20551;-72
2022/12/19 00:54:28;;;;;;;27.37;16.93;;;0.90;99.90;;;;;;4985361;28;20409;-75
2022/12/19 00:56:54;;;;;;;30.73;18.93;;;0.90;99.90;;;;;;4986756;28;20467;-75
2022/12/19 00:59:19;;;;;;;26.60;16.50;;;0.90;99.90;;;;;;4986570;28;20045;-75
2022/12/19 01:01:45;;;;;;;33.40;19.63;;;0.90;99.90;;;;;;4986767;28;20049;-74
2022/12/19 01:04:12;;;;;;;25.03;17.97;;;0.90;99.90;;;;;;4984687;28;20049;-74
2022/12/19 01:06:38;;;;;;;32.67;20.83;;;0.90;99.90;;;;;;4985515;28;20152;-72
2022/12/19 01:09:08;;;;;;;28.47;17.27;;;0.90;99.90;;;;;;4985053;28;20046;-71
2022/12/19 01:14:18;;;;;;;27.20;18.83;;;0.90;99.90;;;;;;4986233;28;20185;-74
2022/12/19 01:16:43;;;;;;;28.13;16.43;;;0.90;99.90;;;;;;4967648;28;20679;-73
2022/12/19 01:19:09;;;;;;;30.93;18.53;;;1.00;99.90;;;;;;4964563;28;20077;-73
2022/12/19 01:21:35;;;;;;;29.47;17.13;;;1.00;99.90;;;;;;4964688;28;20153;-73
2022/12/19 01:24:01;;;;;;;33.07;19.07;;;1.00;99.90;;;;;;4966451;28;20577;-73
2022/12/19 01:26:27;;;;;;;35.83;22.40;;;1.00;99.90;;;;;;4971076;28;20049;-75
2022/12/19 01:28:52;;;;;;;36.93;20.40;;;1.00;99.90;;;;;;4983228;28;20046;-72
2022/12/19 01:31:18;;;;;;;31.53;21.17;;;1.00;99.90;;;;;;4967141;28;20046;-72
2022/12/19 01:33:43;;;;;;;39.17;19.63;;;1.00;99.90;;;;;;4967121;28;20129;-72
2022/12/19 01:36:09;;;;;;;35.47;20.90;;;1.00;99.90;;;;;;4975578;28;20396;-73
2022/12/19 01:38:35;;;;;;;37.50;23.37;;;1.10;99.90;;;;;;4980192;28;20043;-72
2022/12/19 01:41:01;;;;;;;21.13;17.20;;;1.10;99.90;;;;;;4966085;28;20050;-76
2022/12/19 01:43:51;;;;;;;42.43;18.47;;;1.10;99.90;;;;;;4966438;28;20046;-75
2022/12/19 01:46:21;;;;;;;40.13;22.20;;;1.10;99.90;;;;;;4980384;28;20046;-75
2022/12/19 01:48:47;;;;;;;44.37;22.20;;;1.10;99.90;;;;;;4985541;28;20042;-72
2022/12/19 01:51:17;;;;;;;32.70;18.93;;;1.10;99.90;;;;;;4972274;28;20112;-75
2022/12/19 01:53:49;;;;;;;31.33;19.20;;;1.10;99.90;;;;;;4966344;28;20039;-73
2022/12/19 01:56:16;;;;;;;;;;;1.10;99.90;;;;;;4965953;28;20046;-72
2022/12/19 01:58:46;;;;;;;45.63;21.10;;;1.10;99.90;;;;;;4980981;28;19922;-75
2022/12/19 02:01:14;;;;;;;37.90;21.13;;;1.10;99.90;;;;;;4964997;28;20057;-74
2022/12/19 02:03:40;;;;;;;27.20;19.83;;;1.10;99.90;;;;;;4981110;28;20050;-72
2022/12/19 02:06:07;;;;;;;38.87;24.53;;;1.20;99.90;;;;;;4984521;28;20057;-72
2022/12/19 02:08:34;;;;;;;37.57;20.67;;;1.10;99.90;;;;;;4985225;28;20046;-75
2022/12/19 02:11:00;;;;;;;34.00;21.17;;;1.10;99.90;;;;;;4984724;28;20050;-75
2022/12/19 02:13:25;;;;;;;41.97;23.43;;;1.20;99.90;;;;;;4983972;28;20141;-75
2022/12/19 02:16:08;;;;;;;36.30;20.77;;;1.20;99.90;;;;;;4965748;28;20147;-74
2022/12/19 02:18:43;;;;;;;34.03;20.00;;;1.20;99.90;;;;;;4964450;28;20046;-75
2022/12/19 02:21:22;;;;;;;34.87;21.60;;;1.20;99.90;;;;;;4965033;28;20053;-73
2022/12/19 02:24:26;;;;;;;28.93;19.40;;;1.20;99.90;;;;;;4985524;28;20101;-73
2022/12/19 02:27:06;;;;;;;41.30;24.53;;;1.20;99.90;;;;;;4975621;28;20054;-74
2022/12/19 02:29:56;;;;;;;34.37;20.70;;;1.20;99.90;;;;;;4977155;28;20511;-73
2022/12/19 02:33:09;;;;;;;32.67;20.53;;;1.30;99.90;;;;;;4984051;28;20057;-74
2022/12/19 02:35:45;;;;;;;34.30;18.45;;;1.20;99.90;;;;;;4955761;28;20048;-73
2022/12/19 02:38:44;;;;;;;34.33;21.33;;;1.30;99.90;;;;;;4944640;28;20059;-72
2022/12/19 02:41:44;;;;;;;43.93;23.27;;;1.30;99.90;;;;;;4989702;28;20051;-75
2022/12/19 02:44:16;;;;;;;37.87;21.40;;;1.30;99.90;;;;;;4972485;28;20046;-72
2022/12/19 02:46:44;;;;;;;33.35;21.00;;;1.30;99.90;;;;;;4965500;28;20038;-75
2022/12/19 02:49:10;;;;;;;32.63;20.13;;;1.30;99.90;;;;;;4965263;28;20165;-75
2022/12/19 02:51:36;;;;;;;36.70;23.43;;;1.30;99.90;;;;;;4964389;28;20561;-76
2022/12/19 02:54:03;;;;;;;36.43;22.13;;;1.30;99.90;;;;;;4964666;28;20047;-73
2022/12/19 02:57:02;;;;;;;41.50;23.30;;;1.30;99.90;;;;;;4966377;28;20057;-76
2022/12/19 02:59:54;;;;;;;33.70;21.33;;;1.40;99.90;;;;;;4964070;28;20473;-72
2022/12/19 03:02:38;;;;;;;42.53;17.95;;;1.40;99.90;;;;;;4963879;28;20546;-74
2022/12/19 03:05:20;;;;;;;34.50;21.47;;;1.30;99.90;;;;;;4964497;28;20050;-76
2022/12/19 03:07:50;;;;;;;35.85;21.25;;;1.40;99.90;;;;;;4964667;28;20097;-75
2022/12/19 03:10:18;;;;;;;34.30;21.37;;;1.40;99.90;;;;;;4964570;28;20054;-73
2022/12/19 03:12:55;;;;;;;33.87;22.97;;;1.40;99.90;;;;;;4965301;28;20058;-73
2022/12/19 03:15:22;;;;;;;42.10;25.47;;;1.40;99.90;;;;;;4964594;28;20545;-73
2022/12/19 03:17:49;;;;;;;39.80;22.97;;;1.40;99.90;;;;;;4965312;28;20046;-72
2022/12/19 03:20:24;;;;;;;42.47;22.47;;;1.40;99.90;;;;;;4965071;28;20577;-73
2022/12/19 03:22:50;;;;;;;42.83;22.23;;;1.40;99.90;;;;;;4963902;28;20046;-73
2022/12/19 03:25:19;;;;;;;33.27;21.10;;;1.40;99.90;;;;;;4964913;28;20050;-73
2022/12/19 03:27:45;;;;;;;38.03;26.13;;;1.40;99.90;;;;;;4980865;28;20042;-72
2022/12/19 03:30:12;;;;;;;37.10;25.73;;;1.50;99.90;;;;;;4983474;28;20065;-73
2022/12/19 03:32:41;;;;;;;35.83;22.13;;;1.50;99.90;;;;;;4984001;28;20548;-75
2022/12/19 03:35:10;;;;;;;33.47;20.47;;;1.50;99.90;;;;;;4977903;28;20733;-73
2022/12/19 03:37:38;;;;;;;36.87;23.40;;;1.50;99.90;;;;;;4963846;28;20035;-73
2022/12/19 03:40:14;;;;;;;40.53;22.53;;;1.50;99.90;;;;;;4964043;28;20057;-73
2022/12/19 03:45:46;;;;;;;39.07;21.70;;;1.60;99.90;;;;;;4964476;28;20109;-72
2022/12/19 03:48:20;;;;;;;37.40;21.67;;;1.60;99.90;;;;;;4964058;28;20050;-75
2022/12/19 03:51:02;;;;;;;39.23;23.17;;;1.60;99.90;;;;;;4962618;28;20061;-73
2022/12/19 03:53:47;;;;;;;38.23;24.67;;;1.60;99.90;;;;;;4964270;28;20054;-76
2022/12/19 03:56:28;;;;;;;46.30;24.57;;;1.70;99.90;;;;;;4977997;28;20294;-72
2022/12/19 03:59:05;;;;;;;35.58;22.88;;;1.70;99.90;;;;;;4983387;28;20405;-73
2022/12/19 04:01:33;;;;;;;42.00;26.13;;;1.70;99.90;;;;;;4983732;28;20129;-73
2022/12/19 04:03:59;;;;;;;37.57;24.30;;;1.70;99.90;;;;;;4982905;28;20049;-72
2022/12/19 04:06:28;;;;;;;44.00;25.50;;;1.70;99.90;;;;;;4982665;28;20540;-73
2022/12/19 04:08:56;;;;;;;50.23;25.97;;;1.70;99.90;;;;;;4983433;28;20065;-75
2022/12/19 04:11:29;;;;;;;44.90;24.70;;;1.70;99.90;;;;;;4982772;28;20523;-74
2022/12/19 04:14:03;;;;;;;;;;;1.70;99.90;;;;;;4974532;28;20398;-72
2022/12/19 04:16:45;;;;;;;42.93;25.97;;;1.80;99.90;;;;;;4994889;28;19922;-74
2022/12/19 04:19:26;;;;;;;37.60;25.15;;;1.80;99.90;;;;;;4963915;28;20038;-75
2022/12/19 04:21:58;;;;;;;33.37;24.47;;;1.80;99.90;;;;;;4963003;28;20647;-75
2022/12/19 04:24:34;;;;;;;42.05;24.27;;;1.80;99.90;;;;;;4964361;28;20046;-73
2022/12/19 04:27:02;;;;;;;48.03;30.00;;;1.80;99.90;;;;;;4968238;28;20065;-75
2022/12/19 04:29:31;;;;;;;49.17;29.47;;;1.80;99.90;;;;;;4963965;28;20401;-73
2022/12/19 04:31:57;;;;;;;55.83;28.90;;;1.80;99.90;;;;;;4963600;28;20090;-73
2022/12/19 04:34:22;;;;;;;42.57;26.40;;;1.80;99.90;;;;;;4965322;28;20520;-73
2022/12/19 04:36:49;;;;;;;39.47;25.07;;;1.80;99.90;;;;;;4982835;28;20045;-73
2022/12/19 04:39:15;;;;;;;42.70;25.83;;;1.90;99.90;;;;;;4975226;28;20509;-76
2022/12/19 04:41:40;;;;;;;48.00;25.77;;;1.90;99.90;;;;;;4964337;28;20046;-75
2022/12/19 04:44:06;;;;;;;43.87;26.87;;;1.90;99.90;;;;;;4973586;28;20049;-75
2022/12/19 04:46:32;;;;;;;43.03;26.13;;;1.90;99.90;;;;;;4982870;28;20124;-73
2022/12/19 04:48:57;;;;;;;38.13;26.73;;;2.00;99.90;;;;;;4981552;28;20062;-73
2022/12/19 04:51:23;;;;;;;46.87;27.03;;;2.00;99.90;;;;;;4981941;28;20413;-73
2022/12/19 04:53:49;;;;;;;37.77;26.47;;;1.90;99.90;;;;;;4982919;28;20089;-75
2022/12/19 04:56:14;;;;;;;44.30;25.87;;;2.00;99.90;;;;;;4986718;28;20125;-73
2022/12/19 04:58:40;;;;;;;46.83;27.30;;;2.00;99.90;;;;;;4985593;28;20042;-77
2022/12/19 05:01:07;;;;;;;44.00;26.57;;;2.00;99.90;;;;;;4986321;28;20046;-75
2022/12/19 05:03:33;;;;;;;41.83;24.87;;;2.00;99.90;;;;;;4986289;28;20046;-74
2022/12/19 05:06:10;;;;;;;58.80;28.90;;;2.00;99.90;;;;;;4985559;28;20068;-76
2022/12/19 05:08:38;;;;;;;54.70;25.33;;;2.10;99.90;;;;;;4981817;28;20392;-73
2022/12/19 05:11:07;;;;;;;45.37;28.10;;;2.10;99.90;;;;;;4966447;28;20095;-75
2022/12/19 05:13:33;;;;;;;38.57;26.87;;;2.10;99.90;;;;;;4965424;28;20095;-73
2022/12/19 05:16:01;;;;;;;49.10;30.63;;;2.10;99.90;;;;;;4981605;28;20057;-73
2022/12/19 05:18:27;;;;;;;47.63;27.90;;;2.20;99.90;;;;;;4986778;28;20038;-72
2022/12/19 05:20:53;;;;;;;42.93;24.70;;;2.20;99.90;;;;;;4985298;28;20066;-75
2022/12/19 05:23:19;;;;;;;45.57;24.40;;;2.20;99.90;;;;;;4986363;28;20074;-76
2022/12/19 05:25:45;;;;;;;43.87;25.37;;;2.20;99.90;;;;;;4985995;28;20133;-75
2022/12/19 05:28:11;;;;;;;46.90;26.40;;;2.20;99.90;;;;;;4966620;28;20939;-75
2022/12/19 05:30:36;;;;;;;42.83;27.37;;;2.30;99.90;;;;;;4966455;28;20085;-73
2022/12/19 05:33:02;;;;;;;49.67;28.80;;;2.30;99.90;;;;;;4966334;28;20570;-73
2022/12/19 05:35:28;;;;;;;45.10;26.30;;;2.30;99.90;;;;;;4964451;28;20126;-72
2022/12/19 05:37:53;;;;;;;43.20;24.40;;;2.30;99.90;;;;;;4967142;28;20402;-72
2022/12/19 05:40:19;;;;;;;48.33;25.80;;;2.30;99.90;;;;;;4968178;28;20082;-76
2022/12/19 05:42:44;;;;;;;35.77;24.80;;;2.40;99.90;;;;;;4966660;28;20039;-74
2022/12/19 05:45:10;;;;;;;48.97;26.97;;;2.40;99.90;;;;;;4979793;28;20181;-73
2022/12/19 05:47:35;;;;;;;42.97;25.20;;;2.40;99.90;;;;;;4985563;28;20035;-75
2022/12/19 05:50:02;;;;;;;50.87;28.40;;;2.40;99.90;;;;;;4985395;28;20426;-74
2022/12/19 05:52:27;;;;;;;35.83;23.97;;;2.40;99.90;;;;;;4983214;28;20047;-76
2022/12/19 05:54:53;;;;;;;38.83;24.07;;;2.50;99.90;;;;;;4985020;28;20052;-76
2022/12/19 05:57:18;;;;;;;51.67;26.87;;;2.50;99.90;;;;;;4985924;28;20050;-76
2022/12/19 05:59:44;;;;;;;37.40;25.00;;;2.50;99.90;;;;;;4985885;28;20125;-74
2022/12/19 06:02:10;;;;;;;31.60;20.27;;;2.50;99.90;;;;;;4984495;28;20438;-73
2022/12/19 06:04:37;;;;;;;43.17;24.63;;;2.50;99.90;;;;;;4984579;28;20050;-73
2022/12/19 06:07:03;;;;;;;35.60;22.00;;;2.50;99.90;;;;;;4984400;28;20061;-72
2022/12/19 06:09:28;;;;;;;37.23;22.10;;;2.50;99.90;;;;;;4973148;28;20038;-76
2022/12/19 06:11:54;;;;;;;36.03;23.67;;;2.60;99.90;;;;;;4984788;28;20523;-75
2022/12/19 06:14:19;;;;;;;40.03;23.33;;;2.60;99.90;;;;;;4975453;28;20050;-74
2022/12/19 06:16:45;;;;;;;40.77;26.47;;;2.60;99.90;;;;;;4975061;28;20070;-76
2022/12/19 06:19:11;;;;;;;42.40;22.03;;;2.60;99.90;;;;;;4973846;28;20544;-75
2022/12/19 06:21:36;;;;;;;39.17;23.30;;;2.60;99.90;;;;;;4975139;28;20034;-74
2022/12/19 06:24:02;;;;;;;32.20;21.07;;;2.70;99.90;;;;;;4972026;28;20134;-74
2022/12/19 06:26:28;;;;;;;35.93;23.60;;;2.60;99.90;;;;;;4974515;28;20047;-72
2022/12/19 06:28:54;;;;;;;34.00;22.90;;;2.70;99.90;;;;;;4984537;28;20085;-75
2022/12/19 06:31:22;;;;;;;47.30;24.00;;;2.70;99.90;;;;;;4984996;28;20047;-72
2022/12/19 06:33:47;;;;;;;40.17;22.90;;;2.70;99.90;;;;;;4983940;28;20049;-73
2022/12/19 06:36:22;;;;;;;31.23;21.03;;;2.70;99.90;;;;;;4976917;28;20065;-74
2022/12/19 06:38:49;;;;;;;34.13;20.77;;;2.70;99.90;;;;;;4965977;28;20502;-73
2022/12/19 06:44:03;;;;;;;35.10;19.30;;;2.80;99.90;;;;;;4974721;28;20381;-74
2022/12/19 06:46:29;;;;;;;30.67;18.03;;;2.80;99.90;;;;;;4964162;28;20086;-77
2022/12/19 06:48:55;;;;;;;32.50;18.43;;;2.90;99.90;;;;;;4946306;28;20263;-73
2022/12/19 06:51:21;;;;;;;33.90;18.03;;;2.80;99.90;;;;;;4972928;28;20394;-74
2022/12/19 06:53:46;;;;;;;31.57;18.27;;;2.90;99.90;;;;;;4969559;28;20125;-73
2022/12/19 06:56:14;;;;;;;33.73;19.63;;;2.90;99.90;;;;;;4975987;28;20044;-74
2022/12/19 06:58:40;;;;;;;30.30;17.60;;;2.90;99.90;;;;;;4973693;28;20131;-73
2022/12/19 07:01:05;;;;;;;24.83;18.07;;;2.90;99.90;;;;;;4972968;28;20480;-74
2022/12/19 07:03:36;;;;;;;31.67;19.80;;;3.00;99.90;;;;;;4973048;28;20382;-75
2022/12/19 07:06:03;;;;;;;34.78;21.83;;;3.00;99.90;;;;;;4981768;28;20573;-74
2022/12/19 07:08:28;;;;;;;36.22;20.05;;;3.00;99.90;;;;;;4980536;28;20069;-74
2022/12/19 07:10:57;;;;;;;31.05;19.63;;;3.00;99.90;;;;;;4964127;28;20521;-81
2022/12/19 07:13:23;;;;;;;31.50;19.63;;;3.10;99.90;;;;;;4966298;28;20054;-74
2022/12/19 07:15:51;;;;;;;24.95;17.35;;;3.10;99.90;;;;;;4982570;28;20130;-75
2022/12/19 07:18:17;;;;;;;29.38;16.70;;;3.10;99.90;;;;;;4980561;28;20497;-76
2022/12/19 07:20:43;;;;;;;24.00;17.30;;;3.20;99.90;;;;;;4964000;28;20402;-75
2022/12/19 07:23:13;;;;;;;27.58;18.63;;;3.20;99.90;;;;;;4965954;28;20461;-74
2022/12/19 07:25:39;;;;;;;23.17;14.60;;;3.20;99.90;;;;;;4983206;28;20093;-74
2022/12/19 07:28:06;;;;;;;21.90;14.60;;;3.30;99.90;;;;;;4965301;28;20077;-74
2022/12/19 07:30:32;;;;;;;22.40;14.07;;;3.30;99.90;;;;;;4970969;28;20129;-76
2022/12/19 07:32:57;;;;;;;25.08;15.00;;;3.30;99.90;;;;;;4980989;28;20549;-75
2022/12/19 07:35:23;;;;;;;22.65;14.25;;;3.50;99.90;;;;;;4975977;28;20600;-76
2022/12/19 07:37:49;;;;;;;23.95;16.45;;;3.50;99.90;;;;;;4983352;28;20117;-77
2022/12/19 07:40:16;;;;;;;25.67;17.25;;;3.50;99.90;;;;;;4984428;28;20038;-75
2022/12/19 07:42:42;;;;;;;26.73;16.90;;;3.60;99.90;;;;;;4983380;28;20089;-73
2022/12/19 07:45:08;;;;;;;22.77;16.45;;;3.60;99.90;;;;;;4981638;28;20070;-73
2022/12/19 07:47:34;;;;;;;24.58;16.65;;;3.60;99.90;;;;;;4974706;28;20034;-73
2022/12/19 07:50:00;;;;;;;23.45;16.42;;;3.60;99.90;;;;;;4964843;28;20038;-75
2022/12/19 07:52:26;;;;;;;23.75;14.57;;;3.70;99.90;;;;;;4963420;28;20070;-75
2022/12/19 07:54:52;;;;;;;23.40;16.42;;;3.70;99.90;;;;;;4977640;28;20313;-76
2022/12/19 07:57:18;;;;;;;26.27;16.38;;;3.80;99.90;;;;;;4972723;28;20429;-74
2022/12/19 07:59:43;;;;;;;28.38;19.27;;;3.80;99.90;;;;;;4980427;28;20038;-73
2022/12/19 08:02:09;;;;;;;27.85;17.38;;;3.80;99.90;;;;;;4965997;28;20038;-74
2022/12/19 08:04:35;;;;;;;33.42;21.23;;;3.90;99.90;;;;;;4981289;28;20393;-73
2022/12/19 08:07:01;;;;;;;28.65;18.02;;;3.90;99.90;;;;;;4971150;28;20544;-73
2022/12/19 08:09:27;;;;;;;24.23;18.25;;;3.90;99.90;;;;;;4978353;28;20059;-74
2022/12/19 08:11:53;;;;;;;30.10;17.63;;;4.00;99.90;;;;;;4978823;28;20054;-74
2022/12/19 08:14:19;;;;;;;31.35;18.20;;;4.00;99.90;;;;;;4965183;28;20507;-76
2022/12/19 08:16:44;;;;;;;26.00;18.75;;;4.00;99.90;;;;;;4973531;28;20046;-75
2022/12/19 08:19:10;;;;;;;29.83;19.60;;;4.10;99.90;;;;;;4962289;28;20457;-76
2022/12/19 08:21:36;;;;;;;28.15;17.48;;;4.10;99.90;;;;;;4962305;28;20076;-74
2022/12/19 08:24:01;;;;;;;28.58;16.70;;;4.20;99.90;;;;;;4963444;28;20513;-73
2022/12/19 08:26:27;;;;;;;30.42;19.75;;;4.20;99.90;;;;;;4968952;28;20050;-76
2022/12/19 08:28:56;;;;;;;31.80;19.25;;;4.20;99.90;;;;;;4967719;28;20348;-74
2022/12/19 08:31:24;;;;;;;30.15;18.88;;;4.30;99.90;;;;;;4968144;28;20331;-74
2022/12/19 08:33:55;;;;;;;29.20;18.58;;;4.40;99.90;;;;;;4982033;28;20049;-76
2022/12/19 08:36:21;;;;;;;31.67;19.45;;;4.40;99.90;;;;;;4970219;28;20330;-75
2022/12/19 08:38:48;;;;;;;33.67;20.35;;;4.40;99.90;;;;;;4976951;28;20108;-74
2022/12/19 08:41:14;;;;;;;33.20;19.42;;;4.50;99.90;;;;;;4976739;28;20311;-75
2022/12/19 08:43:40;;;;;;;32.35;19.00;;;4.50;99.90;;;;;;4978566;28;20046;-74
2022/12/19 08:46:08;;;;;;;30.52;20.30;;;4.60;99.90;;;;;;4981863;28;20035;-75
2022/12/19 08:48:35;;;;;;;30.80;20.10;;;4.60;99.90;;;;;;4974560;28;20051;-74
2022/12/19 08:51:10;;;;;;;32.50;19.38;;;4.70;99.90;;;;;;4981667;28;20497;-75
2022/12/19 08:53:38;;;;;;;33.88;21.17;;;4.70;99.90;;;;;;4974586;28;20046;-74
2022/12/19 08:56:16;;;;;;;33.00;19.35;;;4.80;99.90;;;;;;4971084;28;20042;-74
2022/12/19 08:58:42;;;;;;;33.80;22.20;;;4.80;99.90;;;;;;4985434;28;20048;-73
2022/12/19 09:01:12;;;;;;;45.47;25.48;;;4.90;99.90;;;;;;4976084;28;20034;-74
2022/12/19 09:03:38;;;;;;;40.90;24.75;;;4.90;99.90;;;;;;4966417;28;20118;-74
2022/12/19 09:06:06;;;;;;;36.60;23.67;;;4.90;99.90;;;;;;4970440;28;20122;-75
2022/12/19 09:08:34;;;;;;;32.72;21.13;;;5.00;99.90;;;;;;4974609;28;20105;-77
2022/12/19 09:11:02;;;;;;;44.58;24.83;;;5.00;99.90;;;;;;4984391;28;20050;-77
2022/12/19 09:13:29;;;;;;;38.97;23.73;;;5.00;99.90;;;;;;4984674;28;20133;-78
2022/12/19 09:16:19;;;;;;;46.65;24.30;;;5.10;99.90;;;;;;4965319;28;20461;-75
2022/12/19 09:18:47;;;;;;;37.05;24.55;;;5.20;99.90;;;;;;4982414;28;20046;-76
2022/12/19 09:21:13;;;;;;;42.35;23.77;;;5.20;99.90;;;;;;4977109;28;20042;-77
2022/12/19 09:23:39;;;;;;;36.58;24.23;;;5.30;99.90;;;;;;4968793;28;20158;-78
2022/12/19 09:26:10;;;;;;;43.90;25.48;;;5.30;99.90;;;;;;4965667;28;20114;-79
2022/12/19 09:28:37;;;;;;;41.47;26.38;;;5.40;99.90;;;;;;4976723;28;20378;-77
2022/12/19 09:31:06;;;;;;;47.33;28.17;;;5.40;99.90;;;;;;4968572;28;20586;-76
2022/12/19 09:33:34;;;;;;;41.63;25.90;;;5.40;99.90;;;;;;4965363;28;20045;-78
2022/12/19 09:36:00;;;;;;;45.20;27.15;;;5.50;99.90;;;;;;4978687;28;20034;-79
2022/12/19 09:38:28;;;;;;;44.55;28.13;;;5.50;99.90;;;;;;4980884;28;20049;-78
2022/12/19 09:41:07;;;;;;;40.58;26.77;;;5.50;99.90;;;;;;4965979;28;20054;-76
2022/12/19 09:43:48;;;;;;;45.72;28.80;;;5.60;99.90;;;;;;4973369;28;20134;-78
2022/12/19 09:46:29;;;;;;;40.90;25.38;;;5.60;99.90;;;;;;4977024;28;20038;-79
2022/12/19 09:48:55;;;;;;;50.80;28.63;;;5.70;99.90;;;;;;4979277;28;20047;-78
2022/12/19 09:51:36;;;;;;;52.17;27.60;;;5.70;99.90;;;;;;4967030;28;20049;-80
2022/12/19 09:54:14;;;;;;;46.65;25.90;;;5.70;99.90;;;;;;4982058;28;20053;-81
2022/12/19 09:56:42;;;;;;;45.33;26.35;;;5.70;99.90;;;;;;4976310;28;20081;-75
2022/12/19 09:59:26;;;;;;;40.90;24.52;;;5.80;99.90;;;;;;4976288;28;20855;-76
2022/12/19 10:02:02;;;;;;;43.55;23.67;;;5.80;99.90;;;;;;4965342;28;20043;-75
2022/12/19 10:04:31;;;;;;;42.70;24.13;;;5.90;99.90;;;;;;4965433;28;20034;-75
2022/12/19 10:06:57;;;;;;;42.45;23.42;;;5.90;99.90;;;;;;4973705;28;20096;-76
2022/12/19 10:09:33;;;;;;;36.95;22.45;;;5.90;99.90;;;;;;4966663;28;20047;-76
2022/12/19 10:12:36;;;;;;;43.83;24.20;;;5.90;99.90;;;;;;4967673;28;20049;-76
2022/12/19 10:15:04;;;;;;;32.90;21.05;;;5.90;99.90;;;;;;4976159;28;20047;-74
2022/12/19 10:17:57;;;;;;;35.60;21.65;;;6.00;99.90;;;;;;4963908;28;20089;-75
2022/12/19 10:20:31;;;;;;;;;;;6.00;99.90;;;;;;4964198;28;20042;-76
2022/12/19 10:23:24;;;;;;;37.95;21.73;;;6.10;99.90;;;;;;4967209;28;20024;-76
2022/12/19 10:26:00;;;;;;;39.15;22.95;;;6.10;99.90;;;;;;4976799;28;20065;-75
2022/12/19 10:28:36;;;;;;;41.45;21.80;;;6.10;99.90;;;;;;4971613;28;20042;-75
2022/12/19 10:31:31;;;;;;;42.28;24.17;;;6.10;99.90;;;;;;4981587;28;20050;-75
2022/12/19 10:34:09;;;;;;;35.60;21.23;;;6.10;99.90;;;;;;4983898;28;20058;-75
2022/12/19 10:36:43;;;;;;;39.20;23.17;;;6.10;99.90;;;;;;4980153;28;20070;-75
2022/12/19 10:39:19;;;;;;;36.40;21.65;;;6.10;99.90;;;;;;4964443;28;20042;-75
2022/12/19 10:41:51;;;;;;;35.50;19.85;;;6.10;99.90;;;;;;4972944;28;20514;-75
2022/12/19 10:44:18;;;;;;;32.45;20.60;;;6.20;99.90;;;;;;4978992;28;20268;-75
2022/12/19 10:46:48;;;;;;;36.42;20.55;;;6.20;99.90;;;;;;4954721;28;20128;-75
2022/12/19 10:49:20;;;;;;;36.78;22.45;;;6.20;99.90;;;;;;4977514;28;20057;-74
2022/12/19 10:51:54;;;;;;;31.38;19.35;;;6.20;99.90;;;;;;4969527;28;20057;-78
2022/12/19 10:54:22;;;;;;;40.28;21.00;;;6.20;99.90;;;;;;4977728;28;20068;-78
2022/12/19 10:56:48;;;;;;;30.13;17.75;;;6.20;99.90;;;;;;4963703;28;20047;-77
2022/12/19 10:59:19;;;;;;;27.40;18.55;;;6.20;99.90;;;;;;4973562;28;20464;-77
2022/12/19 11:01:46;;;;;;;33.10;20.00;;;6.20;99.90;;;;;;4977310;28;20136;-77
2022/12/19 11:04:24;;;;;;;33.97;19.13;;;6.30;99.90;;;;;;4970705;28;20453;-77
2022/12/19 11:07:02;;;;;;;26.00;17.08;;;6.30;99.90;;;;;;4968550;28;20510;-76
2022/12/19 11:09:36;;;;;;;35.80;18.90;;;6.30;99.90;;;;;;4972646;28;20113;-77
2022/12/19 11:12:07;;;;;;;30.10;18.35;;;6.30;99.90;;;;;;4969994;28;20167;-76
2022/12/19 11:14:35;;;;;;;26.80;16.17;;;6.30;99.90;;;;;;4976270;28;20054;-76
2022/12/19 11:17:02;;;;;;;26.55;18.52;;;6.30;99.90;;;;;;4964666;28;20125;-77
2022/12/19 11:19:32;;;;;;;28.88;18.42;;;6.30;99.90;;;;;;4982403;28;20409;-76
2022/12/19 11:22:18;;;;;;;31.88;17.45;;;6.40;99.90;;;;;;4968568;28;20050;-74
2022/12/19 11:24:48;;;;;;;33.25;18.02;;;6.40;99.90;;;;;;4947510;28;20437;-75
2022/12/19 11:27:31;;;;;;;27.13;16.10;;;6.40;99.90;;;;;;4979250;28;20043;-75
2022/12/19 11:29:59;;;;;;;28.20;17.13;;;6.40;99.90;;;;;;4963682;28;20415;-75
2022/12/19 11:32:39;;;;;;;26.83;17.02;;;6.40;99.90;;;;;;4967731;28;20034;-75
2022/12/19 11:35:25;;;;;;;25.67;16.80;;;6.40;99.90;;;;;;4981801;28;20101;-74
2022/12/19 11:37:59;;;;;;;28.38;18.30;;;6.50;99.90;;;;;;4982598;28;20078;-74
2022/12/19 11:40:32;;;;;;;29.98;18.25;;;6.50;99.90;;;;;;4965218;28;20039;-77
2022/12/19 11:43:12;;;;;;;30.88;17.13;;;6.50;99.90;;;;;;4968951;28;20113;-74
2022/12/19 11:46:20;;;;;;;27.95;15.27;;;6.60;99.90;;;;;;4970467;28;20042;-75
2022/12/19 11:49:18;;;;;;;28.58;18.05;;;6.60;99.90;;;;;;4976344;28;20090;-74
2022/12/19 11:52:09;;;;;;;30.08;16.65;;;6.60;99.90;;;;;;4961926;28;20058;-76
2022/12/19 11:54:47;;;;;;;28.88;17.25;;;6.60;99.90;;;;;;4962252;28;20039;-74
2022/12/19 11:57:12;;;;;;;26.95;15.63;;;6.70;99.90;;;;;;4963400;28;20113;-76
2022/12/19 11:59:39;;;;;;;26.70;15.55;;;6.70;99.90;;;;;;4964007;28;20043;-74
2022/12/19 12:02:24;;;;;;;38.72;17.77;;;6.70;99.90;;;;;;4963958;28;20038;-75
2022/12/19 12:05:17;;;;;;;29.67;16.35;;;6.70;99.90;;;;;;4965406;28;20206;-76
2022/12/19 12:07:45;;;;;;;20.35;14.77;;;6.70;99.90;;;;;;4967268;28;20055;-75
2022/12/19 12:10:15;;;;;;;29.90;15.80;;;6.70;99.90;;;;;;4978840;28;20045;-74
2022/12/19 12:12:59;;;;;;;28.75;15.88;;;6.70;99.90;;;;;;4970245;28;20062;-75
2022/12/19 12:15:47;;;;;;;24.85;14.07;;;6.80;99.90;;;;;;4966128;28;20070;-74
2022/12/19 12:18:43;;;;;;;20.75;14.48;;;6.70;99.90;;;;;;4967402;28;20449;-74
2022/12/19 12:21:21;;;;;;;20.85;14.20;;;6.70;99.90;;;;;;4965352;28;20054;-74
2022/12/19 12:24:29;;;;;;;21.90;13.52;;;6.70;99.90;;;;;;4966730;28;20086;-75
2022/12/19 12:27:56;;;;;;;24.98;12.13;;;6.80;99.90;;;;;;4969646;28;20043;-74
2022/12/19 12:30:22;;;;;;;20.23;13.98;;;6.80;99.90;;;;;;4927545;29;20043;-75
2022/12/19 12:33:18;;;;;;;22.20;12.98;;;6.80;99.90;;;;;;4945357;28;20047;-76
2022/12/19 12:35:49;;;;;;;19.88;12.15;;;6.80;99.90;;;;;;4958837;28;20113;-77
2022/12/19 12:38:24;;;;;;;19.83;12.43;;;6.80;99.90;;;;;;4970785;28;20093;-75
2022/12/19 12:41:01;;;;;;;20.30;12.13;;;6.80;99.90;;;;;;4965571;28;20053;-75
2022/12/19 12:43:51;;;;;;;20.33;10.52;;;6.80;99.90;;;;;;4972155;28;20047;-74
2022/12/19 12:46:24;;;;;;;17.80;10.95;;;6.80;99.90;;;;;;4986590;28;20053;-74
2022/12/19 12:48:59;;;;;;;14.63;10.68;;;6.80;99.90;;;;;;4978766;28;20170;-75
2022/12/19 12:51:25;;;;;;;18.00;10.65;;;6.80;99.90;;;;;;4970491;28;20054;-75
2022/12/19 12:54:06;;;;;;;16.25;12.38;;;6.80;99.90;;;;;;4986379;28;20049;-74
2022/12/19 12:56:32;;;;;;;18.42;12.18;;;6.80;99.90;;;;;;4986118;28;20445;-74
2022/12/19 12:59:05;;;;;;;21.55;11.60;;;6.90;99.90;;;;;;4985786;28;20301;-75
2022/12/19 13:01:40;;;;;;;16.95;12.95;;;6.80;99.90;;;;;;4985755;28;20045;-75
2022/12/19 13:04:11;;;;;;;18.58;11.65;;;6.90;99.90;;;;;;4984625;28;20130;-75
2022/12/19 13:06:59;;;;;;;17.55;12.00;;;6.90;99.90;;;;;;4984449;28;20077;-74